createdAt,value
2019-02-24T00:00:16.306Z,-0.92
2019-02-24T00:03:12.896Z,-0.97
2019-02-24T00:06:08.394Z,-1.06
2019-02-24T00:09:05.858Z,-1.08
2019-02-24T00:12:01.386Z,-1.07
2019-02-24T00:14:58.146Z,-1.04
2019-02-24T00:17:55.608Z,-1.05
2019-02-24T00:20:52.120Z,-1.03
2019-02-24T00:23:48.689Z,-1.03
2019-02-24T00:26:45.192Z,-1.04
2019-02-24T00:29:40.706Z,-1.04
2019-02-24T00:32:37.221Z,-1.05
2019-02-24T00:35:32.479Z,-1.06
2019-02-24T00:38:30.763Z,-1.06
2019-02-24T00:41:26.501Z,-1.08
2019-02-24T00:44:23.028Z,-1.09
2019-02-24T00:47:18.738Z,-1.12
2019-02-24T00:50:15.448Z,-1.19
2019-02-24T00:53:10.961Z,-1.22
2019-02-24T00:56:07.451Z,-1.31
2019-02-24T00:59:03.633Z,-1.37
2019-02-24T01:02:00.013Z,-1.38
2019-02-24T01:04:55.390Z,-1.36
2019-02-24T01:07:52.197Z,-1.33
2019-02-24T01:10:47.633Z,-1.33
2019-02-24T01:13:44.405Z,-1.32
2019-02-24T01:16:39.960Z,-1.35
2019-02-24T01:19:37.761Z,-1.41
2019-02-24T01:22:32.779Z,-1.44
2019-02-24T01:25:29.825Z,-1.46
2019-02-24T01:28:27.301Z,-1.44
2019-02-24T01:31:24.045Z,-1.42
2019-02-24T01:34:19.719Z,-1.44
2019-02-24T01:37:16.234Z,-1.48
2019-02-24T01:40:12.952Z,-1.50
2019-02-24T01:43:09.407Z,-1.52
2019-02-24T01:46:05.110Z,-1.54
2019-02-24T01:49:03.156Z,-1.61
2019-02-24T01:51:57.949Z,-1.70
2019-02-24T01:54:54.461Z,-1.71
2019-02-24T01:57:49.927Z,-1.72
2019-02-24T02:00:46.435Z,-1.68
2019-02-24T02:03:43.080Z,-1.72
2019-02-24T02:06:38.809Z,-1.79
2019-02-24T02:09:35.348Z,-1.81
2019-02-24T02:12:31.170Z,-1.88
2019-02-24T02:15:27.648Z,-1.89
2019-02-24T02:18:23.102Z,-1.92
2019-02-24T02:21:20.807Z,-1.96
2019-02-24T02:24:16.211Z,-1.93
2019-02-24T02:27:13.754Z,-1.90
2019-02-24T02:30:10.241Z,-1.91
2019-02-24T02:33:06.838Z,-1.91
2019-02-24T02:36:02.311Z,-1.95
2019-02-24T02:38:58.779Z,-2.06
2019-02-24T02:41:54.272Z,-2.12
2019-02-24T02:44:50.854Z,-2.16
2019-02-24T02:47:46.362Z,-2.18
2019-02-24T02:50:43.953Z,-2.17
2019-02-24T02:53:39.398Z,-2.20
2019-02-24T02:56:36.165Z,-2.23
2019-02-24T02:59:31.477Z,-2.23
2019-02-24T03:02:27.882Z,-2.24
2019-02-24T03:05:23.590Z,-2.24
2019-02-24T03:08:22.532Z,-2.23
2019-02-24T03:11:17.944Z,-2.21
2019-02-24T03:14:15.477Z,-2.18
2019-02-24T03:17:10.816Z,-2.18
2019-02-24T03:20:08.748Z,-2.11
2019-02-24T03:23:03.559Z,-2.12
2019-02-24T03:25:59.632Z,-2.14
2019-02-24T03:29:03.845Z,-2.12
2019-02-24T03:31:52.637Z,-2.21
2019-02-24T03:34:48.321Z,-2.28
2019-02-24T03:37:44.820Z,-2.30
2019-02-24T03:40:40.901Z,-2.26
2019-02-24T03:43:36.829Z,-2.25
2019-02-24T03:46:31.774Z,-2.27
2019-02-24T03:49:28.316Z,-2.27
2019-02-24T03:52:24.031Z,-2.30
2019-02-24T03:55:20.464Z,-2.32
2019-02-24T03:58:15.944Z,-2.32
2019-02-24T04:01:13.476Z,-2.33
2019-02-24T04:04:08.764Z,-2.38
2019-02-24T04:07:04.898Z,-2.46
2019-02-24T04:10:00.005Z,-2.45
2019-02-24T04:12:56.815Z,-2.47
2019-02-24T04:15:52.541Z,-2.45
2019-02-24T04:18:49.064Z,-2.42
2019-02-24T04:21:46.364Z,-2.45
2019-02-24T04:24:43.208Z,-2.48
2019-02-24T04:27:38.987Z,-2.43
2019-02-24T04:30:37.533Z,-2.42
2019-02-24T04:33:32.249Z,-2.41
2019-02-24T04:36:28.653Z,-2.44
2019-02-24T04:39:24.157Z,-2.46
2019-02-24T04:42:21.664Z,-2.45
2019-02-24T04:45:17.173Z,-2.48
2019-02-24T04:48:13.878Z,-2.51
2019-02-24T04:51:10.428Z,-2.50
2019-02-24T04:54:07.000Z,-2.48
2019-02-24T04:57:02.369Z,-2.47
2019-02-24T04:59:58.918Z,-2.53
2019-02-24T05:02:55.535Z,-2.51
2019-02-24T05:05:52.211Z,-2.56
2019-02-24T05:08:48.771Z,-2.60
2019-02-24T05:11:44.375Z,-2.62
2019-02-24T05:14:41.750Z,-2.65
2019-02-24T05:17:38.703Z,-2.66
2019-02-24T05:20:34.701Z,-2.60
2019-02-24T05:23:30.625Z,-2.59
2019-02-24T05:26:27.149Z,-2.61
2019-02-24T05:29:23.943Z,-2.62
2019-02-24T05:32:22.557Z,-2.60
2019-02-24T05:35:19.265Z,-2.61
2019-02-24T05:38:15.553Z,-2.65
2019-02-24T05:41:10.706Z,-2.70
2019-02-24T05:44:07.211Z,-2.74
2019-02-24T05:47:02.748Z,-2.74
2019-02-24T05:49:59.330Z,-2.68
2019-02-24T05:52:56.044Z,-2.64
2019-02-24T05:55:52.519Z,-2.65
2019-02-24T05:58:48.179Z,-2.68
2019-02-24T06:01:44.642Z,-2.69
2019-02-24T06:04:40.341Z,-2.67
2019-02-24T06:07:36.008Z,-2.69
2019-02-24T06:10:31.011Z,-2.68
2019-02-24T06:13:27.667Z,-2.68
2019-02-24T06:16:23.430Z,-2.70
2019-02-24T06:19:20.166Z,-2.68
2019-02-24T06:22:17.679Z,-2.63
2019-02-24T06:25:14.436Z,-2.61
2019-02-24T06:28:09.953Z,-2.63
2019-02-24T06:31:06.241Z,-2.68
2019-02-24T06:34:02.224Z,-2.67
2019-02-24T06:36:58.725Z,-2.66
2019-02-24T06:39:54.185Z,-2.64
2019-02-24T06:42:50.687Z,-2.59
2019-02-24T06:45:46.156Z,-2.58
2019-02-24T06:48:42.574Z,-2.57
2019-02-24T06:51:38.264Z,-2.57
2019-02-24T06:54:34.418Z,-2.51
2019-02-24T06:57:32.037Z,-2.49
2019-02-24T07:00:27.458Z,-2.41
2019-02-24T07:03:24.964Z,-2.36
2019-02-24T07:06:20.680Z,-2.30
2019-02-24T07:09:16.951Z,-2.25
2019-02-24T07:12:12.453Z,-2.20
2019-02-24T07:15:08.829Z,-2.14
2019-02-24T07:18:04.349Z,-2.05
2019-02-24T07:21:00.892Z,-2.00
2019-02-24T07:23:59.832Z,-1.93
2019-02-24T07:27:01.347Z,-1.87
2019-02-24T07:29:58.131Z,-1.74
2019-02-24T07:32:54.810Z,-1.68
2019-02-24T07:35:52.606Z,-1.64
2019-02-24T07:38:48.178Z,-1.59
2019-02-24T07:41:44.839Z,-1.53
2019-02-24T07:44:40.770Z,-1.44
2019-02-24T07:47:38.337Z,-1.36
2019-02-24T07:50:33.896Z,-1.27
2019-02-24T07:53:31.613Z,-1.20
2019-02-24T07:56:27.131Z,-1.16
2019-02-24T07:59:23.873Z,-1.05
2019-02-24T08:02:19.363Z,-0.94
2019-02-24T08:05:16.008Z,-0.89
2019-02-24T08:08:16.438Z,-0.79
2019-02-24T08:11:07.648Z,-0.69
2019-02-24T08:14:04.093Z,-0.59
2019-02-24T08:17:00.882Z,-0.48
2019-02-24T08:19:56.325Z,-0.41
2019-02-24T08:22:52.796Z,-0.35
2019-02-24T08:25:50.560Z,-0.30
2019-02-24T08:28:46.221Z,-0.22
2019-02-24T08:31:42.293Z,-0.16
2019-02-24T08:34:41.519Z,-0.11
2019-02-24T08:37:38.152Z,-0.01
2019-02-24T08:40:36.678Z,0.06
2019-02-24T08:43:32.502Z,0.13
2019-02-24T08:46:28.387Z,0.31
2019-02-24T08:49:24.211Z,0.43
2019-02-24T08:52:20.902Z,0.53
2019-02-24T08:55:17.588Z,0.63
2019-02-24T08:58:13.613Z,0.72
2019-02-24T09:01:09.181Z,0.88
2019-02-24T09:04:05.927Z,1.00
2019-02-24T09:07:01.437Z,1.10
2019-02-24T09:09:58.338Z,1.17
2019-02-24T09:12:54.981Z,1.21
2019-02-24T09:15:53.293Z,1.34
2019-02-24T09:18:48.282Z,1.47
2019-02-24T09:21:43.931Z,1.55
2019-02-24T09:24:41.430Z,1.64
2019-02-24T09:27:37.157Z,1.76
2019-02-24T09:30:34.830Z,1.85
2019-02-24T09:33:30.602Z,2.01
2019-02-24T09:36:28.421Z,2.28
2019-02-24T09:39:24.938Z,2.47
2019-02-24T09:42:18.428Z,2.64
2019-02-24T09:45:14.106Z,2.70
2019-02-24T09:48:10.645Z,2.78
2019-02-24T09:51:06.250Z,2.90
2019-02-24T09:54:02.968Z,3.03
2019-02-24T09:57:00.715Z,3.10
2019-02-24T09:59:56.243Z,3.20
2019-02-24T10:02:52.796Z,3.32
2019-02-24T10:05:49.571Z,3.48
2019-02-24T10:08:46.540Z,3.61
2019-02-24T10:11:42.954Z,3.66
2019-02-24T10:14:39.519Z,3.71
2019-02-24T10:17:35.327Z,3.80
2019-02-24T10:20:31.831Z,3.92
2019-02-24T10:23:27.324Z,3.99
2019-02-24T10:26:25.764Z,4.06
2019-02-24T10:29:21.098Z,4.11
2019-02-24T10:32:17.834Z,4.19
2019-02-24T10:35:12.806Z,4.27
2019-02-24T10:38:09.329Z,4.37
2019-02-24T10:41:07.165Z,4.46
2019-02-24T10:44:02.983Z,4.53
2019-02-24T10:46:59.757Z,4.60
2019-02-24T10:49:56.201Z,4.74
2019-02-24T10:52:52.991Z,4.89
2019-02-24T10:55:48.724Z,5.00
2019-02-24T10:58:44.901Z,5.07
2019-02-24T11:01:41.646Z,5.14
2019-02-24T11:04:37.216Z,5.17
2019-02-24T11:07:35.000Z,5.21
2019-02-24T11:10:30.757Z,5.20
2019-02-24T11:13:27.465Z,5.21
2019-02-24T11:16:23.101Z,5.29
2019-02-24T11:19:18.187Z,5.49
2019-02-24T11:22:14.122Z,5.49
2019-02-24T11:25:09.654Z,5.62
2019-02-24T11:28:09.729Z,5.70
2019-02-24T11:31:05.278Z,5.75
2019-02-24T11:34:01.860Z,5.85
2019-02-24T11:36:58.472Z,5.93
2019-02-24T11:39:55.221Z,6.01
2019-02-24T11:42:52.971Z,6.06
2019-02-24T11:45:48.734Z,6.04
2019-02-24T11:48:44.496Z,6.02
2019-02-24T11:51:40.096Z,6.00
2019-02-24T11:54:36.617Z,5.99
2019-02-24T11:57:33.231Z,6.04
2019-02-24T12:00:29.781Z,6.08
2019-02-24T12:03:26.574Z,6.10
2019-02-24T12:06:22.254Z,6.13
2019-02-24T12:09:17.890Z,6.09
2019-02-24T12:12:13.382Z,6.11
2019-02-24T12:15:10.053Z,6.19
2019-02-24T12:18:06.562Z,6.29
2019-02-24T12:21:03.150Z,6.34
2019-02-24T12:23:58.730Z,6.34
2019-02-24T12:26:55.457Z,6.38
2019-02-24T12:29:52.301Z,6.45
2019-02-24T12:32:47.975Z,6.48
2019-02-24T12:35:44.619Z,6.47
2019-02-24T12:38:41.423Z,6.43
2019-02-24T12:41:37.992Z,6.38
2019-02-24T12:44:34.585Z,6.37
2019-02-24T12:47:33.415Z,6.33
2019-02-24T12:50:28.881Z,6.34
2019-02-24T12:53:24.668Z,6.37
2019-02-24T12:56:21.326Z,6.37
2019-02-24T12:59:18.043Z,6.34
2019-02-24T13:02:14.132Z,6.36
2019-02-24T13:05:09.785Z,6.47
2019-02-24T13:08:07.321Z,6.54
2019-02-24T13:11:02.823Z,6.59
2019-02-24T13:13:59.528Z,6.56
2019-02-24T13:16:56.316Z,6.55
2019-02-24T13:19:52.027Z,6.58
2019-02-24T13:22:49.376Z,6.52
2019-02-24T13:25:44.289Z,6.52
2019-02-24T13:28:50.182Z,6.55
2019-02-24T13:31:38.720Z,6.55
2019-02-24T13:34:35.464Z,6.56
2019-02-24T13:37:31.290Z,6.75
2019-02-24T13:40:27.651Z,6.97
2019-02-24T13:43:23.154Z,7.19
2019-02-24T13:46:19.446Z,7.31
2019-02-24T13:49:17.675Z,7.21
2019-02-24T13:52:12.394Z,7.12
2019-02-24T13:55:08.993Z,7.03
2019-02-24T13:58:04.762Z,6.97
2019-02-24T14:01:01.303Z,6.92
2019-02-24T14:03:56.824Z,6.93
2019-02-24T14:06:53.411Z,7.01
2019-02-24T14:09:49.703Z,7.11
2019-02-24T14:12:45.754Z,7.16
2019-02-24T14:15:42.589Z,7.17
2019-02-24T14:18:44.054Z,7.25
2019-02-24T14:21:40.757Z,7.33
2019-02-24T14:24:36.231Z,7.38
2019-02-24T14:27:32.738Z,7.38
2019-02-24T14:30:29.473Z,7.35
2019-02-24T14:33:35.992Z,7.20
2019-02-24T14:36:34.045Z,7.12
2019-02-24T14:39:31.789Z,7.13
2019-02-24T14:42:27.843Z,7.19
2019-02-24T14:45:24.930Z,7.25
2019-02-24T14:48:22.115Z,7.28
2019-02-24T14:51:18.041Z,7.38
2019-02-24T14:54:14.884Z,7.45
2019-02-24T14:57:11.627Z,7.53
2019-02-24T15:00:08.200Z,7.63
2019-02-24T15:03:04.741Z,7.72
2019-02-24T15:06:01.306Z,7.92
2019-02-24T15:09:02.163Z,8.26
2019-02-24T15:11:58.186Z,8.72
2019-02-24T15:14:55.089Z,9.13
2019-02-24T15:17:50.669Z,9.35
2019-02-24T15:20:49.396Z,9.53
2019-02-24T15:23:44.674Z,9.71
2019-02-24T15:26:41.546Z,9.91
2019-02-24T15:29:38.440Z,10.00
2019-02-24T15:32:35.006Z,10.01
2019-02-24T15:35:31.989Z,10.02
2019-02-24T15:38:27.652Z,10.02
2019-02-24T15:41:29.812Z,10.02
2019-02-24T15:44:20.511Z,9.83
2019-02-24T15:47:17.080Z,9.61
2019-02-24T15:50:13.792Z,9.45
2019-02-24T15:53:12.488Z,9.30
2019-02-24T15:56:08.077Z,8.95
2019-02-24T15:59:04.620Z,8.75
2019-02-24T16:02:02.282Z,8.54
2019-02-24T16:04:57.804Z,8.30
2019-02-24T16:07:54.320Z,8.09
2019-02-24T16:10:50.314Z,7.93
2019-02-24T16:16:41.013Z,7.67
2019-02-24T16:19:38.552Z,7.54
2019-02-24T16:22:34.110Z,7.46
2019-02-24T16:25:30.235Z,7.37
2019-02-24T16:28:25.787Z,7.23
2019-02-24T16:31:22.386Z,7.09
2019-02-24T16:34:17.020Z,6.95
2019-02-24T16:37:13.627Z,6.81
2019-02-24T16:40:10.452Z,6.65
2019-02-24T16:43:06.051Z,6.52
2019-02-24T16:46:02.829Z,6.38
2019-02-24T16:48:58.016Z,6.28
2019-02-24T16:51:54.795Z,6.20
2019-02-24T16:54:52.797Z,6.09
2019-02-24T16:57:48.258Z,5.98
2019-02-24T17:00:44.776Z,5.86
2019-02-24T17:03:41.214Z,5.74
2019-02-24T17:06:40.943Z,5.62
2019-02-24T17:09:37.733Z,5.53
2019-02-24T17:12:35.434Z,5.43
2019-02-24T17:15:30.985Z,5.34
2019-02-24T17:18:27.514Z,5.21
2019-02-24T17:21:26.987Z,5.12
2019-02-24T17:24:22.025Z,5.02
2019-02-24T17:27:18.068Z,4.96
2019-02-24T17:30:13.479Z,4.89
2019-02-24T17:33:10.258Z,4.82
2019-02-24T17:36:07.624Z,4.74
2019-02-24T17:39:02.442Z,4.67
2019-02-24T17:41:58.842Z,4.59
2019-02-24T17:44:55.382Z,4.52
2019-02-24T17:47:50.597Z,4.43
2019-02-24T17:50:47.159Z,4.36
2019-02-24T17:53:44.931Z,4.25
2019-02-24T17:56:40.710Z,4.17
2019-02-24T17:59:40.434Z,4.07
2019-02-24T18:02:34.042Z,4.00
2019-02-24T18:05:30.661Z,3.92
2019-02-24T18:08:28.218Z,3.83
2019-02-24T18:11:21.828Z,3.76
2019-02-24T18:14:17.615Z,3.70
2019-02-24T18:17:14.147Z,3.61
2019-02-24T18:20:11.985Z,3.54
2019-02-24T18:23:08.459Z,3.44
2019-02-24T18:26:05.168Z,3.34
2019-02-24T18:29:00.627Z,3.28
2019-02-24T18:31:57.246Z,3.22
2019-02-24T18:34:53.162Z,3.17
2019-02-24T18:37:49.238Z,3.13
2019-02-24T18:40:45.961Z,3.08
2019-02-24T18:43:42.462Z,3.04
2019-02-24T18:46:39.248Z,3.00
2019-02-24T18:49:34.939Z,2.95
2019-02-24T18:52:33.907Z,2.91
2019-02-24T18:55:30.469Z,2.88
2019-02-24T18:58:28.764Z,2.83
2019-02-24T19:01:23.470Z,2.79
2019-02-24T19:04:20.610Z,2.76
2019-02-24T19:07:17.527Z,2.63
2019-02-24T19:10:13.552Z,2.63
2019-02-24T19:13:12.077Z,2.63
2019-02-24T19:16:07.845Z,2.59
2019-02-24T19:19:05.616Z,2.56
2019-02-24T19:22:01.305Z,2.54
2019-02-24T19:24:58.190Z,2.48
2019-02-24T19:27:59.451Z,2.40
2019-02-24T19:30:55.130Z,2.32
2019-02-24T19:33:53.799Z,2.28
2019-02-24T19:36:48.787Z,2.21
2019-02-24T19:39:46.732Z,2.14
2019-02-24T19:42:42.671Z,2.09
2019-02-24T19:45:40.432Z,2.05
2019-02-24T19:48:42.053Z,2.01
2019-02-24T19:51:32.968Z,1.96
2019-02-24T19:54:30.824Z,1.89
2019-02-24T19:57:27.147Z,1.86
2019-02-24T20:00:23.257Z,1.85
2019-02-24T20:03:20.769Z,1.83
2019-02-24T20:06:17.444Z,1.85
2019-02-24T20:09:14.206Z,1.84
2019-02-24T20:12:10.252Z,1.81
2019-02-24T20:15:09.535Z,1.79
2019-02-24T20:18:05.438Z,1.74
2019-02-24T20:21:08.022Z,1.70
2019-02-24T20:24:04.351Z,1.67
2019-02-24T20:27:01.041Z,1.64
2019-02-24T20:29:56.916Z,1.57
2019-02-24T20:32:53.283Z,1.55
2019-02-24T20:35:50.177Z,1.50
2019-02-24T20:38:45.905Z,1.48
2019-02-24T20:41:42.736Z,1.45
2019-02-24T20:44:39.527Z,1.45
2019-02-24T20:47:36.476Z,1.43
2019-02-24T20:50:31.607Z,1.42
2019-02-24T20:53:28.417Z,1.37
2019-02-24T20:56:23.680Z,1.33
2019-02-24T20:59:20.353Z,1.30
2019-02-24T21:02:17.492Z,1.27
2019-02-24T21:05:15.190Z,1.26
2019-02-24T21:08:11.734Z,1.23
2019-02-24T21:11:08.412Z,1.20
2019-02-24T21:14:06.092Z,1.20
2019-02-24T21:17:01.789Z,1.15
2019-02-24T21:19:59.442Z,1.12
2019-02-24T21:22:55.390Z,1.08
2019-02-24T21:25:52.751Z,1.07
2019-02-24T21:28:48.988Z,1.04
2019-02-24T21:31:45.920Z,1.03
2019-02-24T21:34:42.385Z,1.00
2019-02-24T21:37:40.084Z,0.98
2019-02-24T21:40:35.513Z,0.94
2019-02-24T21:43:32.067Z,0.91
2019-02-24T21:46:27.587Z,0.89
2019-02-24T21:49:24.051Z,0.84
2019-02-24T21:52:19.536Z,0.82
2019-02-24T21:55:17.057Z,0.80
2019-02-24T21:58:12.824Z,0.78
2019-02-24T22:01:09.340Z,0.75
2019-02-24T22:04:04.767Z,0.70
2019-02-24T22:07:01.543Z,0.67
2019-02-24T22:09:57.133Z,0.65
2019-02-24T22:12:54.073Z,0.63
2019-02-24T22:15:50.642Z,0.61
2019-02-24T22:18:47.263Z,0.60
2019-02-24T22:21:43.802Z,0.59
2019-02-24T22:24:40.483Z,0.58
2019-02-24T22:27:36.094Z,0.56
2019-02-24T22:30:33.480Z,0.55
2019-02-24T22:33:29.275Z,0.50
2019-02-24T22:36:25.352Z,0.40
2019-02-24T22:39:20.492Z,0.41
2019-02-24T22:42:17.028Z,0.43
2019-02-24T22:45:12.554Z,0.44
2019-02-24T22:48:08.660Z,0.44
2019-02-24T22:51:05.240Z,0.42
2019-02-24T22:54:00.755Z,0.41
2019-02-24T22:56:58.423Z,0.43
2019-02-24T22:59:53.625Z,0.45
2019-02-24T23:02:49.935Z,0.43
2019-02-24T23:05:47.449Z,0.41
2019-02-24T23:08:44.047Z,0.38
2019-02-24T23:11:39.517Z,0.34
2019-02-24T23:14:35.971Z,0.29
2019-02-24T23:17:32.442Z,0.24
2019-02-24T23:20:29.186Z,0.22
2019-02-24T23:23:24.865Z,0.20
2019-02-24T23:26:22.488Z,0.19
2019-02-24T23:29:18.085Z,0.17
2019-02-24T23:32:14.885Z,0.16
2019-02-24T23:35:10.040Z,0.12
2019-02-24T23:38:06.600Z,0.13
2019-02-24T23:41:02.186Z,0.11
2019-02-24T23:43:59.009Z,0.06
2019-02-24T23:46:54.968Z,-0.01
2019-02-24T23:49:51.780Z,-0.01
2019-02-24T23:52:47.538Z,0.00
2019-02-24T23:55:44.153Z,0.00
2019-02-24T23:58:39.614Z,-0.01
